Data for 08/18/2006

Time Sea-Level Adjusted Pressure Absolute Pressure Temperature Relative Humidity Dew Point   
(mb) (inHg) (mb) (inHg) (C) (F) (%) (C) (F)
00:05 1026 30.3 855 25.25 9.4 48.9 90 7.8 46
00:10 1026 30.3 855 25.25 9.4 49 90 7.8 46.1
00:15 1026 30.3 855 25.25 9.3 48.8 90 7.8 46.1
00:20 1026 30.3 855 25.25 9.2 48.5 90 7.6 45.6
00:25 1026 30.3 855 25.25 9.1 48.4 89 7.3 45.2
00:30 1026 30.3 855 25.25 9 48.3 89 7.2 45
00:35 1026 30.3 855 25.25 9.2 48.5 88 7.2 45
00:40 1026 30.3 855 25.25 9.3 48.7 88 7.3 45.2
00:45 1026 30.3 855 25.25 9.2 48.5 88 7.2 45
00:50 1026 30.3 855 25.25 9.3 48.7 87 7.3 45.1
00:55 1026 30.3 855 25.25 9.1 48.4 88 7.3 45.1
01:00 1026 30.3 855 25.25 9 48.3 88 7.2 45
01:05 1026 30.3 855 25.25 9 48.3 88 7.2 45
01:10 1026 30.3 855 25.25 9 48.2 89 7.3 45.2
01:15 1026 30.3 855 25.25 8.5 47.3 92 7.3 45.1
01:20 1026 30.3 855 25.25 8.5 47.3 91 7.2 44.9
01:25 1026 30.3 855 25.25 8.7 47.6 90 7.2 44.9
01:30 1026 30.3 855 25.25 8.7 47.6 90 7.1 44.7
01:35 1026 30.3 855 25.25 8.6 47.6 89 7 44.6
01:40 1026 30.3 855 25.25 8.4 47.2 90 6.9 44.4
01:45 1026 30.3 855 25.25 8.2 46.7 91 6.8 44.2
01:50 1026 30.3 855 25.25 8.1 46.7 91 6.7 44.1
01:55 1026 30.3 855 25.25 8.2 46.8 90 6.6 43.9
02:00 1026 30.3 855 25.25 8.6 47.5 87 6.7 44
02:05 1026 30.3 855 25.25 8.6 47.6 88 6.8 44.2
02:10 1026 30.3 855 25.25 8.5 47.4 89 6.8 44.2
02:15 1026 30.3 855 25.25 8.5 47.3 88 6.7 44.1
02:20 1026 30.3 855 25.25 8.4 47.2 88 6.6 43.8
02:25 1026 30.3 855 25.25 8.4 47.2 88 6.5 43.7
02:30 1026 30.3 855 25.25 8.5 47.3 88 6.6 43.9
02:35 1026 30.3 855 25.25 8.3 47 89 6.6 44
02:40 1026 30.3 855 25.25 8 46.3 91 6.5 43.7
02:45 1026 30.3 855 25.25 7.9 46.1 91 6.5 43.8
02:50 1026 30.3 855 25.25 7.8 46 91 6.5 43.7
02:55 1026 30.3 855 25.25 7.9 46.2 91 6.4 43.6
03:00 1026 30.3 855 25.25 7.9 46.3 90 6.4 43.6
03:05 1026 30.3 855 25.25 8 46.4 90 6.5 43.6
03:10 1026 30.3 855 25.25 7.9 46.2 90 6.3 43.4
03:15 1026 30.3 855 25.25 8 46.4 90 6.4 43.5
03:20 1026 30.3 855 25.25 8.2 46.7 89 6.5 43.8
03:25 1026 30.3 855 25.25 8.3 47 89 6.6 43.8
03:30 1026 30.3 855 25.25 8.2 46.8 89 6.6 43.9
03:35 1026 30.3 856 25.28 7.9 46.2 91 6.5 43.7
03:40 1026 30.3 856 25.28 7.9 46.2 91 6.4 43.6
03:45 1026 30.3 856 25.28 7.9 46.2 90 6.3 43.4
03:50 1026 30.3 856 25.28 7.7 45.9 91 6.4 43.5
03:55 1026 30.3 856 25.28 7.4 45.4 92 6.3 43.3
04:00 1026 30.3 856 25.28 7.7 45.8 91 6.3 43.4
04:05 1026 30.3 856 25.28 7.9 46.2 90 6.3 43.4
04:10 1027 30.33 856 25.28 8 46.4 88 6.2 43.2
04:15 1027 30.33 856 25.28 8 46.5 89 6.3 43.4
04:20 1027 30.33 856 25.28 8.2 46.7 88 6.3 43.4
04:25 1027 30.33 856 25.28 8.2 46.7 89 6.5 43.7
04:30 1027 30.33 856 25.28 7.9 46.2 90 6.4 43.5
04:35 1027 30.33 856 25.28 8 46.4 90 6.4 43.6
04:40 1027 30.33 856 25.28 7.9 46.2 91 6.6 43.8
04:45 1027 30.33 856 25.28 7.9 46.2 91 6.6 43.8
04:50 1027 30.33 856 25.28 8 46.3 91 6.6 43.9
04:55 1027 30.33 856 25.28 8 46.4 91 6.7 44
05:00 1027 30.33 856 25.28 8.1 46.6 90 6.6 43.8
05:05 1027 30.33 856 25.28 8.2 46.8 90 6.7 44.1
05:10 1027 30.33 856 25.28 8.3 46.9 90 6.7 44.1
05:15 1027 30.33 856 25.28 8.4 47.1 90 6.9 44.4
05:20 1027 30.33 856 25.28 8.5 47.3 89 6.8 44.3
05:25 1027 30.33 856 25.28 8.7 47.7 88 6.8 44.3
05:30 1027 30.33 856 25.28 8.9 48.1 86 6.8 44.2
05:35 1027 30.33 856 25.28 9.1 48.4 87 7.1 44.8
05:40 1027 30.33 856 25.28 8.9 48 90 7.3 45.2
05:45 1027 30.33 856 25.28 8.6 47.6 91 7.2 45
05:50 1027 30.33 856 25.28 8.4 47.1 92 7.2 44.9
05:55 1027 30.33 856 25.28 8.4 47.1 92 7.1 44.7
06:00 1027 30.33 856 25.28 8.4 47.1 92 7.1 44.8
06:05 1027 30.33 856 25.28 8.2 46.7 93 7.1 44.8
06:10 1027 30.33 856 25.28 7.9 46.3 93 6.8 44.3
06:15 1027 30.33 856 25.28 8 46.4 91 6.6 43.8
06:20 1027 30.33 856 25.28 8.2 46.7 89 6.5 43.7
06:25 1027 30.33 856 25.28 8.1 46.6 90 6.6 43.9
06:30 1027 30.33 856 25.28 8 46.3 91 6.6 43.8
06:35 1027 30.33 856 25.28 8.2 46.8 90 6.6 43.9
06:40 1027 30.33 856 25.28 8.3 47 89 6.6 44
06:45 1027 30.33 856 25.28 8.3 47 90 6.7 44.1
06:50 1027 30.33 856 25.28 8.3 47 89 6.7 44
06:55 1027 30.33 856 25.28 8.4 47.2 88 6.6 43.9
07:00 1027 30.33 856 25.28 8.5 47.4 88 6.7 44
07:05 1027 30.33 856 25.28 8.6 47.4 88 6.6 43.9
07:10 1027 30.33 856 25.28 8.7 47.7 87 6.7 44.1
07:15 1027 30.33 856 25.28 8.9 48 86 6.7 44
07:20 1027 30.33 856 25.28 8.9 48.1 86 6.8 44.2
07:25 1027 30.33 857 25.31 8.7 47.6 88 6.8 44.2
07:30 1027 30.33 857 25.31 8.6 47.6 86 6.4 43.6
07:35 1027 30.33 857 25.31 9.2 48.5 84 6.6 43.9
07:40 1027 30.33 857 25.31 9.6 49.2 83 6.9 44.4
07:45 1027 30.33 857 25.31 9.7 49.4 83 6.9 44.4
07:50 1028 30.36 857 25.31 9.6 49.2 83 6.8 44.3
07:55 1027 30.33 857 25.31 9.6 49.3 83 6.9 44.5
08:00 1028 30.36 857 25.31 9.9 49.8 83 7.1 44.7
08:05 1027 30.33 857 25.31 10.3 50.6 84 7.7 45.8
08:10 1028 30.36 857 25.31 10.6 51 83 7.8 46
08:15 1028 30.36 857 25.31 10.6 51.1 82 7.7 45.9
08:20 1028 30.36 857 25.31 11 51.8 80 7.8 46
08:25 1028 30.36 857 25.31 11.6 52.8 79 8 46.4
08:30 1028 30.36 857 25.31 11.9 53.5 76 7.9 46.3
08:35 1028 30.36 857 25.31 12.5 54.4 73 7.8 46.1
08:40 1028 30.36 857 25.31 13 55.3 73 8.3 46.9
08:45 1028 30.36 857 25.31 13 55.4 71 8 46.4
08:50 1028 30.36 857 25.31 13.4 56 69 7.8 46
08:55 1028 30.36 857 25.31 13.9 57.1 69 8.5 47.2
09:00 1028 30.36 857 25.31 14.2 57.6 69 8.6 47.5
09:05 1028 30.36 857 25.31 14.6 58.2 64 8 46.4
09:10 1028 30.36 857 25.31 14.4 57.9 67 8.4 47.2
09:15 1028 30.36 857 25.31 14.7 58.4 66 8.5 47.4
09:20 1028 30.36 857 25.31 14.5 58.1 68 8.7 47.7
09:25 1028 30.36 857 25.31 14.6 58.2 66 8.3 47
09:30 1028 30.36 857 25.31 14.6 58.4 67 8.7 47.6
09:35 1028 30.36 857 25.31 15.2 59.4 63 8.3 47
09:40 1028 30.36 857 25.31 14.9 58.7 66 8.7 47.6
09:45 1028 30.36 857 25.31 15 58.9 64 8.3 46.9
09:50 1028 30.36 857 25.31 15.7 60.3 62 8.5 47.4
09:55 1028 30.36 857 25.31 15.9 60.6 62 8.8 47.9
10:00 1028 30.36 857 25.31 16.2 61.2 60 8.6 47.5
10:05 1028 30.36 857 25.31 16 60.8 59 8.1 46.5
10:10 1028 30.36 857 25.31 16.7 62.1 58 8.5 47.3
10:15 1028 30.36 857 25.31 16.4 61.5 59 8.4 47.2
10:20 1028 30.36 857 25.31 16 60.9 57 7.7 45.9
10:25 1028 30.36 857 25.31 16.9 62.5 55 8 46.5
10:30 1028 30.36 857 25.31 17.6 63.6 54 8.2 46.8
10:35 1028 30.36 857 25.31 17.7 63.9 52 7.9 46.2
10:40 1028 30.36 857 25.31 17.1 62.7 55 8 46.4
10:45 1028 30.36 857 25.31 17.3 63.2 55 8.2 46.8
10:50 1028 30.36 857 25.31 17.3 63.1 57 8.7 47.6
10:55 1028 30.36 857 25.31 17.1 62.9 57 8.6 47.5
11:00 1028 30.36 857 25.31 17.6 63.7 53 7.9 46.2
11:05 1028 30.36 857 25.31 17.7 63.9 52 7.8 46.1
11:10 1028 30.36 857 25.31 17.9 64.2 53 8.4 47.1
11:15 1028 30.36 857 25.31 17.7 63.8 55 8.7 47.7
11:20 1028 30.36 857 25.31 17.9 64.2 53 8.3 46.9
11:25 1028 30.36 857 25.31 17.9 64.2 51 7.9 46.2
11:30 1028 30.36 857 25.31 18.6 65.4 51 8.3 46.9
11:35 1028 30.36 857 25.31 18.9 66.1 51 8.6 47.5
11:40 1028 30.36 857 25.31 18 64.4 52 8 46.4
11:45 1028 30.36 857 25.31 18.3 64.9 47 6.8 44.3
11:50 1028 30.36 857 25.31 18.6 65.6 47 7.2 45
11:55 1028 30.36 857 25.31 18.4 65.1 47 7.1 44.7
12:00 1028 30.36 857 25.31 18.5 65.3 47 7.1 44.7
12:05 1028 30.36 857 25.31 18.1 64.5 45 6.2 43.2
12:10 1028 30.36 857 25.31 17.4 63.3 47 6.1 43.1
12:15 1027 30.33 857 25.31 18.6 65.5 42 5.6 42
12:20 1027 30.33 857 25.31 19.7 67.5 41 6.2 43.1
12:25 1027 30.33 857 25.31 19.9 67.8 39 5.6 42
12:30 1027 30.33 857 25.31 19.8 67.6 40 6 42.7
12:35 1027 30.33 857 25.31 19.9 67.9 37 4.8 40.6
12:40 1027 30.33 857 25.31 20.2 68.3 35 4.6 40.2
12:45 1027 30.33 856 25.28 20 68 38 5.3 41.6
12:50 1027 30.33 856 25.28 20.1 68.1 36 4.7 40.5
12:55 1027 30.33 856 25.28 19.9 67.9 39 5.7 42.3
13:00 1027 30.33 856 25.28 19.7 67.5 33 3.3 37.9
13:05 1027 30.33 856 25.28 20.6 69.2 33 3.8 38.8
13:10 1027 30.33 856 25.28 20.5 69 34 4.5 40.1
13:15 1027 30.33 856 25.28 20.2 68.4 35 4.6 40.3
13:20 1027 30.33 856 25.28 19.2 66.6 38 4.9 40.8
13:25 1027 30.33 856 25.28 19.6 67.3 34 3.6 38.5
13:30 1027 30.33 856 25.28 19.9 67.8 34 3.6 38.4
13:35 1027 30.33 856 25.28 20.4 68.6 31 3 37.4
13:40 1027 30.33 856 25.28 21 69.7 31 3.5 38.3
13:45 1027 30.33 856 25.28 20.9 69.5 31 3.4 38
13:50 1027 30.33 856 25.28 21.2 70.2 27 1.7 35
13:55 1027 30.33 856 25.28 20.9 69.7 30 3.1 37.6
14:00 1027 30.33 856 25.28 21.1 69.9 29 2.5 36.5
14:05 1027 30.33 856 25.28 21.2 70.1 25 0.3 32.6
14:10 1027 30.33 856 25.28 20.8 69.4 26 0.6 33
14:15 1026 30.3 856 25.28 21.4 70.6 25 0.7 33.3
14:20 1026 30.3 856 25.28 21.8 71.2 24 0.5 32.9
14:25 1026 30.3 856 25.28 22.2 71.9 26 1.7 35.1
14:30 1026 30.3 856 25.28 22.1 71.8 25 1.4 34.5
14:35 1026 30.3 856 25.28 21.9 71.5 26 1.6 34.9
14:40 1026 30.3 856 25.28 21.8 71.2 26 1.6 34.9
14:45 1026 30.3 856 25.28 21.9 71.4 27 2.2 36
14:50 1026 30.3 856 25.28 22.1 71.7 25 1.2 34.2
14:55 1026 30.3 855 25.25 22.3 72.1 26 2.1 35.8
15:00 1026 30.3 855 25.25 22.2 72 27 2.4 36.3
15:05 1026 30.3 855 25.25 22.4 72.3 27 2.6 36.6
15:10 1026 30.3 855 25.25 22.1 71.8 27 2.7 36.8
15:15 1026 30.3 855 25.25 21.8 71.2 27 2.2 36
15:20 1026 30.3 855 25.25 22.2 72 27 2.3 36.2
15:25 1026 30.3 855 25.25 22.2 71.9 28 3.1 37.5
15:30 1026 30.3 855 25.25 22.4 72.4 27 2.5 36.5
15:35 1026 30.3 855 25.25 22.1 71.7 30 3.8 38.8
15:40 1026 30.3 855 25.25 21.6 70.9 27 1.9 35.4
15:45 1026 30.3 855 25.25 22.6 72.6 26 2.4 36.3
15:50 1026 30.3 855 25.25 22.9 73.2 26 2.6 36.6
15:55 1026 30.3 855 25.25 23 73.3 25 2.2 35.9
16:00 1026 30.3 855 25.25 22.1 71.7 25 1.3 34.4
16:05 1026 30.3 855 25.25 21.9 71.4 24 0.6 33
16:10 1026 30.3 855 25.25 22.6 72.7 21 -0.7 30.8
16:15 1026 30.3 855 25.25 23 73.4 21 -0.6 30.9
16:20 1026 30.3 855 25.25 23 73.5 20 -1.1 30
16:25 1025 30.27 855 25.25 23 73.4 20 -0.7 30.7
16:30 1025 30.27 855 25.25 22.7 72.8 20 -1.4 29.5
16:35 1025 30.27 855 25.25 23.1 73.5 19 -1.6 29.1
16:40 1025 30.27 855 25.25 23.5 74.4 17 -2.5 27.6
16:45 1025 30.27 854 25.22 23.8 74.8 17 -2.7 27.2
16:50 1025 30.27 854 25.22 23.1 73.5 19 -1.8 28.8
16:55 1025 30.27 854 25.22 23 73.3 20 -0.9 30.4
17:00 1025 30.27 854 25.22 23.1 73.6 18 -2.5 27.5
17:05 1025 30.27 854 25.22 22.7 72.8 18 -2.5 27.5
17:10 1025 30.27 854 25.22 22.1 71.8 18 -2.9 26.8
17:15 1025 30.27 854 25.22 22.4 72.4 19 -2.5 27.6
17:20 1025 30.27 854 25.22 22.2 71.9 18 -3.1 26.4
17:25 1025 30.27 854 25.22 22.8 73.1 18 -2.2 28.1
17:30 1025 30.27 854 25.22 22.4 72.3 19 -2.1 28.2
17:35 1025 30.27 854 25.22 22.4 72.3 20 -1.7 28.9
17:40 1025 30.27 854 25.22 22.3 72.1 18 -2.7 27.2
17:45 1025 30.27 854 25.22 22 71.7 18 -3 26.5
17:50 1025 30.27 854 25.22 23 73.4 18 -2.1 28.2
17:55 1025 30.27 854 25.22 23.2 73.7 18 -2.5 27.5
18:00 1025 30.27 854 25.22 23.3 74 17 -2.6 27.3
18:05 1025 30.27 854 25.22 23.3 74 17 -2.9 26.7
18:10 1025 30.27 854 25.22 23.3 73.9 16 -4.1 24.6
18:15 1025 30.27 854 25.22 22.6 72.8 16 -4.3 24.2
18:20 1025 30.27 854 25.22 22.4 72.2 17 -3.4 25.8
18:25 1025 30.27 854 25.22 22.9 73.1 18 -2.6 27.3
18:30 1025 30.27 854 25.22 22.8 73 16 -4.3 24.3
18:35 1025 30.27 854 25.22 22.9 73.3 17 -2.8 26.9
18:40 1025 30.27 854 25.22 23 73.3 16 -4.4 24.1
18:45 1025 30.27 854 25.22 23 73.3 16 -4 24.8
18:50 1024 30.24 854 25.22 22.4 72.3 18 -2.9 26.7
18:55 1024 30.24 854 25.22 22 71.6 19 -2.9 26.9
19:00 1024 30.24 854 25.22 21.6 70.8 20 -2.2 28.1
19:05 1024 30.24 854 25.22 21.3 70.4 19 -3 26.6
19:10 1024 30.24 854 25.22 21.3 70.3 19 -2.8 27
19:15 1024 30.24 854 25.22 21.3 70.3 19 -2.9 26.8
19:20 1024 30.24 854 25.22 21.2 70.2 20 -2.3 27.8
19:25 1024 30.24 854 25.22 21.1 70 20 -2.6 27.4
19:30 1024 30.24 854 25.22 20.9 69.6 20 -2.6 27.3
19:35 1024 30.24 854 25.22 20.9 69.6 21 -2.2 28.1
19:40 1024 30.24 854 25.22 20.8 69.4 22 -1.8 28.8
19:45 1024 30.24 854 25.22 20.5 69 22 -1.6 29
19:50 1024 30.24 854 25.22 20.4 68.8 23 -1.1 30.1
19:55 1024 30.24 854 25.22 20.3 68.6 25 -0.3 31.4
20:00 1024 30.24 853 25.19 20.3 68.5 23 -1.5 29.3
20:05 1024 30.24 853 25.19 20.2 68.4 24 -0.7 30.8
20:10 1024 30.24 854 25.22 20.2 68.4 23 -1.5 29.2
20:15 1024 30.24 854 25.22 20.1 68.1 29 1.8 35.2
20:20 1024 30.24 854 25.22 20 68.1 29 1.5 34.6
20:25 1024 30.24 854 25.22 19.9 67.8 24 -1.2 29.9
20:30 1024 30.24 854 25.22 19.7 67.5 32 2.6 36.6
20:35 1024 30.24 854 25.22 19 66.1 33 2.3 36.1
20:40 1024 30.24 854 25.22 18.1 64.5 36 2.7 36.9
20:45 1024 30.24 854 25.22 17.5 63.5 35 1.9 35.4
20:50 1024 30.24 854 25.22 17.3 63.1 42 4.3 39.7
20:55 1024 30.24 854 25.22 16.6 61.9 40 3 37.4
21:00 1024 30.24 854 25.22 15.9 60.7 43 3.4 38.1
21:05 1024 30.24 854 25.22 15.6 60 44 3.6 38.4
21:10 1025 30.27 854 25.22 14.8 58.7 51 4.8 40.6
21:15 1025 30.27 854 25.22 14.5 58.1 43 2.2 36
21:20 1025 30.27 854 25.22 15.4 59.7 37 1 33.8
21:25 1025 30.27 854 25.22 15.7 60.3 36 0.8 33.5
21:30 1025 30.27 854 25.22 15.6 60.1 39 1.7 35
21:35 1025 30.27 854 25.22 15.1 59.2 41 2.1 35.8
21:40 1025 30.27 854 25.22 14.7 58.4 42 2 35.6
21:45 1025 30.27 854 25.22 14.4 58 43 2.1 35.7
21:50 1025 30.27 854 25.22 14.4 57.8 43 1.9 35.4
21:55 1025 30.27 854 25.22 14.2 57.6 43 1.9 35.4
22:00 1025 30.27 854 25.22 14.1 57.4 43 1.8 35.3
22:05 1025 30.27 854 25.22 13.8 56.8 45 2 35.6
22:10 1025 30.27 854 25.22 13.7 56.7 44 1.9 35.4
22:15 1025 30.27 854 25.22 13.7 56.7 44 1.9 35.4
22:20 1025 30.27 854 25.22 13.6 56.5 45 2 35.5
22:25 1025 30.27 854 25.22 13.4 56.1 49 3 37.3
22:30 1025 30.27 854 25.22 13.3 55.9 44 1.3 34.4
22:35 1025 30.27 854 25.22 13.7 56.6 42 1.1 34
22:40 1025 30.27 854 25.22 14 57.2 41 1 33.8
22:45 1025 30.27 854 25.22 14 57.2 40 0.8 33.5
22:50 1025 30.27 854 25.22 14 57.3 43 1.6 34.9
22:55 1024 30.24 854 25.22 13.9 57.1 40 0.7 33.2
23:00 1024 30.24 854 25.22 14 57.2 41 1.1 34
23:05 1024 30.24 854 25.22 13.8 56.9 47 2.6 36.8
23:10 1024 30.24 854 25.22 13.7 56.7 43 1.3 34.3
23:15 1024 30.24 854 25.22 13.4 56 43 1 33.7
23:20 1024 30.24 854 25.22 13.5 56.3 45 2 35.5
23:25 1024 30.24 854 25.22 14.1 57.3 40 0.6 33
23:30 1024 30.24 854 25.22 13.9 57 40 0.8 33.4
23:35 1024 30.24 854 25.22 13.6 56.4 44 1.6 34.9
23:40 1024 30.24 853 25.19 13.1 55.5 44 1.3 34.3
23:45 1024 30.24 853 25.19 12.8 55.1 45 1.1 34
23:50 1024 30.24 853 25.19 12.8 55 44 0.9 33.7
23:55 1024 30.24 853 25.19 13 55.3 43 0.6 33.1
24:00 1024 30.24 853 25.19 13 55.4 43 0.9 33.5